createdAt,value
2023-05-12T00:01:24.082Z,14.52
2023-05-12T00:03:53.655Z,14.54
2023-05-12T00:06:21.005Z,14.49
2023-05-12T00:08:47.465Z,14.43
2023-05-12T00:11:14.045Z,14.32
2023-05-12T00:13:40.699Z,14.16
2023-05-12T00:16:07.469Z,14.17
2023-05-12T00:18:34.488Z,14.27
2023-05-12T00:21:01.251Z,14.30
2023-05-12T00:23:27.747Z,14.42
2023-05-12T00:25:55.222Z,14.40
2023-05-12T00:28:21.704Z,14.39
2023-05-12T00:30:48.112Z,14.35
2023-05-12T00:33:14.702Z,14.35
2023-05-12T00:35:41.344Z,14.46
2023-05-12T00:38:07.794Z,14.47
2023-05-12T00:40:34.311Z,14.48
2023-05-12T00:43:00.729Z,14.60
2023-05-12T00:45:29.403Z,14.50
2023-05-12T00:47:56.806Z,14.32
2023-05-12T00:50:23.483Z,14.32
2023-05-12T00:52:50.191Z,14.30
2023-05-12T00:55:16.755Z,14.27
2023-05-12T00:57:43.611Z,14.21
2023-05-12T01:00:10.711Z,14.26
2023-05-12T01:02:37.600Z,14.23
2023-05-12T01:05:04.762Z,14.25
2023-05-12T01:07:32.800Z,14.23
2023-05-12T01:09:59.466Z,14.21
2023-05-12T01:12:26.695Z,14.26
2023-05-12T01:14:54.672Z,14.23
2023-05-12T01:17:26.815Z,14.28
2023-05-12T01:19:54.840Z,14.24
2023-05-12T01:22:21.373Z,14.21
2023-05-12T01:24:51.583Z,14.23
2023-05-12T01:27:19.425Z,14.27
2023-05-12T01:29:47.306Z,14.30
2023-05-12T01:32:14.866Z,14.28
2023-05-12T01:34:43.044Z,14.29
2023-05-12T01:37:10.491Z,14.28
2023-05-12T01:39:37.874Z,14.27
2023-05-12T01:42:07.490Z,14.24
2023-05-12T01:44:34.398Z,14.22
2023-05-12T01:47:01.836Z,14.21
2023-05-12T01:49:28.464Z,14.20
2023-05-12T01:51:55.716Z,14.15
2023-05-12T01:54:22.298Z,14.15
2023-05-12T01:56:48.990Z,14.23
2023-05-12T01:59:15.868Z,14.18
2023-05-12T02:01:42.468Z,14.23
2023-05-12T02:04:09.378Z,14.15
2023-05-12T02:06:36.087Z,14.14
2023-05-12T02:09:02.876Z,14.13
2023-05-12T02:11:29.450Z,14.11
2023-05-12T02:13:56.356Z,14.10
2023-05-12T02:16:23.647Z,14.05
2023-05-12T02:18:50.398Z,14.04
2023-05-12T02:21:17.116Z,13.96
2023-05-12T02:23:43.860Z,13.97
2023-05-12T02:26:10.868Z,14.01
2023-05-12T02:28:37.726Z,13.88
2023-05-12T02:31:04.457Z,13.90
2023-05-12T02:33:31.739Z,13.81
2023-05-12T02:35:58.549Z,13.77
2023-05-12T02:38:25.803Z,13.73
2023-05-12T02:40:52.357Z,13.67
2023-05-12T02:43:18.890Z,13.62
2023-05-12T02:45:45.457Z,13.64
2023-05-12T02:48:12.770Z,13.52
2023-05-12T02:50:39.413Z,13.49
2023-05-12T02:53:06.290Z,13.43
2023-05-12T02:55:34.053Z,13.41
2023-05-12T02:58:01.349Z,13.40
2023-05-12T03:00:28.111Z,13.38
2023-05-12T03:02:55.595Z,13.34
2023-05-12T03:05:22.135Z,13.33
2023-05-12T03:07:49.697Z,13.29
2023-05-12T03:10:17.818Z,13.27
2023-05-12T03:12:44.676Z,13.22
2023-05-12T03:15:11.402Z,13.26
2023-05-12T03:17:38.319Z,13.26
2023-05-12T03:20:05.578Z,13.37
2023-05-12T03:22:32.388Z,13.39
2023-05-12T03:24:58.914Z,13.38
2023-05-12T03:27:25.423Z,13.36
2023-05-12T03:29:51.962Z,13.41
2023-05-12T03:32:18.410Z,13.39
2023-05-12T03:34:44.823Z,13.36
2023-05-12T03:37:11.663Z,13.36
2023-05-12T03:39:38.833Z,13.39
2023-05-12T03:42:06.226Z,13.37
2023-05-12T03:44:32.734Z,13.36
2023-05-12T03:46:59.262Z,13.38
2023-05-12T03:49:25.857Z,13.33
2023-05-12T03:51:52.580Z,13.29
2023-05-12T03:54:19.337Z,13.32
2023-05-12T03:56:50.468Z,13.36
2023-05-12T03:59:19.383Z,13.35
2023-05-12T04:01:46.113Z,13.41
2023-05-12T04:04:13.012Z,13.46
2023-05-12T04:06:39.715Z,13.54
2023-05-12T04:09:06.378Z,13.58
2023-05-12T04:11:32.939Z,13.62
2023-05-12T04:13:59.645Z,13.57
2023-05-12T04:16:26.234Z,13.58
2023-05-12T04:18:53.046Z,13.61
2023-05-12T04:21:19.533Z,13.68
2023-05-12T04:23:45.999Z,13.72
2023-05-12T04:26:12.489Z,13.72
2023-05-12T04:28:38.951Z,13.82
2023-05-12T04:31:05.562Z,13.84
2023-05-12T04:33:32.898Z,13.84
2023-05-12T04:35:59.829Z,13.97
2023-05-12T04:38:26.769Z,14.12
2023-05-12T04:41:00.047Z,14.13
2023-05-12T04:45:58.613Z,14.42
2023-05-12T04:48:26.685Z,14.52
2023-05-12T04:50:53.106Z,14.70
2023-05-12T04:53:19.648Z,14.86
2023-05-12T04:55:46.257Z,14.91
2023-05-12T04:58:16.144Z,14.67
2023-05-12T05:00:42.701Z,14.52
2023-05-12T05:03:09.486Z,14.85
2023-05-12T05:05:35.980Z,14.48
2023-05-12T05:08:02.380Z,14.33
2023-05-12T05:10:28.832Z,14.47
2023-05-12T05:12:55.339Z,14.49
2023-05-12T05:15:22.003Z,15.10
2023-05-12T05:17:49.679Z,15.67
2023-05-12T05:20:16.696Z,16.24
2023-05-12T05:22:43.763Z,16.07
2023-05-12T05:25:10.817Z,16.88
2023-05-12T05:27:38.645Z,17.60
2023-05-12T05:30:09.219Z,17.29
2023-05-12T05:32:36.871Z,17.30
2023-05-12T05:35:03.515Z,17.58
2023-05-12T05:37:30.346Z,17.90
2023-05-12T05:39:56.987Z,19.03
2023-05-12T05:42:23.398Z,18.48
2023-05-12T05:44:49.866Z,18.56
2023-05-12T05:47:16.456Z,19.21
2023-05-12T05:49:43.038Z,19.46
2023-05-12T05:52:09.509Z,20.36
2023-05-12T05:54:36.004Z,19.96
2023-05-12T05:57:03.084Z,20.34
2023-05-12T05:59:29.483Z,20.16
2023-05-12T06:01:55.969Z,20.32
2023-05-12T06:04:22.501Z,20.44
2023-05-12T06:06:48.960Z,20.40
2023-05-12T06:09:15.822Z,20.37
2023-05-12T06:11:42.537Z,21.52
2023-05-12T06:14:09.182Z,21.38
2023-05-12T06:16:35.690Z,23.33
2023-05-12T06:19:02.436Z,25.33
2023-05-12T06:21:28.936Z,25.62
2023-05-12T06:23:56.336Z,24.70
2023-05-12T06:26:22.737Z,24.30
2023-05-12T06:28:49.131Z,25.49
2023-05-12T06:31:15.598Z,26.46
2023-05-12T06:33:42.722Z,27.92
2023-05-12T06:36:10.570Z,27.75
2023-05-12T06:38:37.062Z,27.10
2023-05-12T06:41:03.574Z,27.88
2023-05-12T06:43:30.066Z,26.79
2023-05-12T06:45:56.880Z,26.17
2023-05-12T06:48:24.167Z,25.15
2023-05-12T06:50:50.612Z,23.83
2023-05-12T06:53:16.994Z,25.41
2023-05-12T06:55:44.150Z,22.30
2023-05-12T06:58:10.586Z,23.87
2023-05-12T07:00:37.277Z,23.22
2023-05-12T07:03:04.319Z,24.74
2023-05-12T07:05:30.861Z,23.87
2023-05-12T07:07:57.314Z,26.43
2023-05-12T07:10:23.702Z,28.10
2023-05-12T07:12:50.334Z,24.86
2023-05-12T07:15:16.788Z,28.33
2023-05-12T07:17:43.226Z,26.99
2023-05-12T07:20:09.835Z,28.36
2023-05-12T07:22:38.870Z,28.61
2023-05-12T07:25:07.598Z,27.36
2023-05-12T07:27:34.329Z,30.43
2023-05-12T07:30:01.508Z,30.93
2023-05-12T07:32:27.976Z,28.66
2023-05-12T07:34:54.421Z,28.32
2023-05-12T07:37:20.926Z,30.11
2023-05-12T07:39:47.429Z,32.00
2023-05-12T07:42:14.026Z,31.36
2023-05-12T07:44:41.292Z,31.72
2023-05-12T07:47:07.698Z,31.51
2023-05-12T07:49:34.101Z,31.52
2023-05-12T07:52:00.836Z,29.45
2023-05-12T07:54:27.265Z,27.65
2023-05-12T07:56:53.675Z,27.04
2023-05-12T07:59:20.332Z,29.18
2023-05-12T08:01:46.859Z,30.05
2023-05-12T08:04:13.429Z,29.20
2023-05-12T08:06:39.972Z,28.93
2023-05-12T08:09:06.556Z,29.05
2023-05-12T08:11:32.985Z,29.09
2023-05-12T08:13:59.420Z,29.53
2023-05-12T08:16:26.226Z,27.21
2023-05-12T08:18:52.787Z,28.08
2023-05-12T08:21:19.227Z,27.82
2023-05-12T08:23:45.885Z,28.20
2023-05-12T08:26:12.314Z,28.80
2023-05-12T08:28:38.853Z,29.40
2023-05-12T08:31:05.347Z,28.55
2023-05-12T08:33:34.597Z,28.66
2023-05-12T08:36:01.350Z,27.89
2023-05-12T08:38:28.399Z,27.57
2023-05-12T08:41:13.537Z,26.55
2023-05-12T08:43:50.302Z,26.66
2023-05-12T08:46:16.955Z,26.62
2023-05-12T08:48:46.107Z,26.29
2023-05-12T08:51:13.772Z,26.64
2023-05-12T08:53:41.916Z,26.89
2023-05-12T08:58:42.355Z,28.01
2023-05-12T09:01:11.862Z,26.11
2023-05-12T09:03:38.964Z,25.29
2023-05-12T09:06:06.776Z,25.90
2023-05-12T09:08:35.000Z,26.22
2023-05-12T09:11:01.994Z,25.92
2023-05-12T09:13:37.695Z,25.21
2023-05-12T09:16:06.967Z,24.98
2023-05-12T09:18:52.055Z,25.40
2023-05-12T09:21:19.111Z,26.51
2023-05-12T09:24:05.857Z,25.79
2023-05-12T09:26:44.311Z,25.55
2023-05-12T09:29:15.740Z,26.30
2023-05-12T09:31:51.883Z,26.63
2023-05-12T09:34:20.346Z,25.59
2023-05-12T09:36:56.321Z,25.41
2023-05-12T09:39:22.749Z,25.97
2023-05-12T09:41:49.198Z,25.66
2023-05-12T09:44:16.982Z,25.28
2023-05-12T09:46:44.692Z,24.22
2023-05-12T09:49:11.969Z,24.51
2023-05-12T09:51:40.046Z,25.55
2023-05-12T09:54:07.798Z,26.10
2023-05-12T09:56:37.601Z,26.38
2023-05-12T09:59:05.414Z,27.81
2023-05-12T10:01:32.151Z,27.09
2023-05-12T10:03:59.102Z,27.67
2023-05-12T10:06:33.929Z,28.45
2023-05-12T10:09:23.964Z,28.47
2023-05-12T10:11:53.500Z,29.09
2023-05-12T10:14:22.536Z,28.82
2023-05-12T10:16:49.742Z,28.09
2023-05-12T10:19:17.448Z,28.17
2023-05-12T10:21:47.186Z,27.82
2023-05-12T10:24:14.662Z,27.46
2023-05-12T10:26:42.574Z,26.55
2023-05-12T10:29:09.775Z,27.44
2023-05-12T10:31:37.504Z,26.88
2023-05-12T10:34:05.397Z,26.13
2023-05-12T10:36:31.870Z,26.13
2023-05-12T10:39:05.697Z,26.98
2023-05-12T10:41:33.543Z,26.96
2023-05-12T10:44:00.427Z,26.17
2023-05-12T10:46:27.799Z,25.89
2023-05-12T10:49:03.244Z,25.04
2023-05-12T10:51:33.121Z,26.20
2023-05-12T10:54:05.221Z,27.81
2023-05-12T10:56:43.979Z,28.70
2023-05-12T10:59:17.253Z,26.80
2023-05-12T11:02:01.564Z,26.02
2023-05-12T11:04:41.273Z,24.45
2023-05-12T11:07:10.093Z,23.73
2023-05-12T11:09:44.666Z,23.72
2023-05-12T11:12:14.723Z,24.05
2023-05-12T11:14:43.869Z,23.89
2023-05-12T11:17:10.827Z,24.25
2023-05-12T11:19:38.340Z,25.97
2023-05-12T11:22:07.363Z,26.99
2023-05-12T11:24:34.169Z,25.84
2023-05-12T11:27:00.664Z,24.99
2023-05-12T11:29:27.287Z,24.30
2023-05-12T11:31:53.938Z,24.24
2023-05-12T11:34:22.295Z,23.62
2023-05-12T11:36:50.655Z,23.14
2023-05-12T11:39:24.443Z,22.72
2023-05-12T11:41:54.713Z,22.34
2023-05-12T11:44:25.927Z,22.14
2023-05-12T11:47:10.813Z,21.98
2023-05-12T11:49:51.188Z,21.87
2023-05-12T11:52:19.691Z,22.19
2023-05-12T11:54:51.541Z,22.73
2023-05-12T11:57:28.131Z,22.69
2023-05-12T12:00:03.489Z,22.79
2023-05-12T12:02:30.632Z,22.45
2023-05-12T12:04:57.680Z,23.50
2023-05-12T12:07:34.775Z,24.78
2023-05-12T12:10:16.917Z,26.34
2023-05-12T12:12:44.184Z,27.32
2023-05-12T12:15:11.465Z,27.77
2023-05-12T12:17:39.864Z,26.73
2023-05-12T12:20:07.814Z,24.47
2023-05-12T12:22:34.639Z,23.70
2023-05-12T12:25:02.200Z,23.12
2023-05-12T12:27:28.654Z,23.55
2023-05-12T12:29:55.152Z,23.10
2023-05-12T12:32:21.735Z,22.43
2023-05-12T12:34:49.345Z,22.65
2023-05-12T12:37:16.195Z,22.25
2023-05-12T12:39:44.011Z,22.04
2023-05-12T12:42:10.462Z,22.45
2023-05-12T12:44:36.905Z,22.57
2023-05-12T12:47:04.044Z,22.97
2023-05-12T12:49:30.507Z,23.43
2023-05-12T12:51:56.922Z,24.42
2023-05-12T12:54:26.957Z,25.92
2023-05-12T12:56:53.680Z,25.64
2023-05-12T12:59:20.122Z,26.18
2023-05-12T13:01:46.604Z,24.96
2023-05-12T13:04:13.004Z,24.56
2023-05-12T13:06:39.905Z,24.60
2023-05-12T13:09:06.592Z,24.35
2023-05-12T13:11:33.070Z,24.79
2023-05-12T13:13:59.751Z,25.11
2023-05-12T13:16:26.306Z,25.00
2023-05-12T13:18:52.872Z,24.65
2023-05-12T13:21:19.317Z,24.22
2023-05-12T13:23:45.788Z,23.27
2023-05-12T13:26:12.195Z,23.06
2023-05-12T13:28:38.763Z,23.15
2023-05-12T13:31:06.212Z,23.22
2023-05-12T13:33:33.474Z,23.08
2023-05-12T13:36:00.008Z,23.29
2023-05-12T13:38:26.863Z,23.06
2023-05-12T13:40:53.587Z,22.35
2023-05-12T13:43:20.142Z,22.14
2023-05-12T13:45:46.720Z,22.12
2023-05-12T13:48:13.456Z,22.57
2023-05-12T13:50:40.493Z,22.50
2023-05-12T13:53:06.958Z,22.41
2023-05-12T13:55:39.384Z,22.47
2023-05-12T13:58:07.142Z,22.77
2023-05-12T14:00:33.717Z,22.83
2023-05-12T14:03:00.504Z,22.80
2023-05-12T14:05:27.344Z,22.88
2023-05-12T14:07:53.801Z,23.42
2023-05-12T14:10:20.257Z,23.86
2023-05-12T14:12:47.978Z,23.38
2023-05-12T14:15:26.596Z,23.09
2023-05-12T14:17:59.976Z,22.51
2023-05-12T14:20:26.490Z,22.48
2023-05-12T14:22:52.954Z,22.72
2023-05-12T14:25:19.725Z,22.44
2023-05-12T14:27:46.256Z,22.26
2023-05-12T14:30:13.220Z,22.07
2023-05-12T14:32:39.981Z,21.64
2023-05-12T14:35:08.234Z,20.86
2023-05-12T14:37:35.249Z,20.28
2023-05-12T14:40:02.138Z,20.06
2023-05-12T14:42:29.453Z,20.20
2023-05-12T14:44:56.464Z,20.25
2023-05-12T14:47:23.020Z,20.45
2023-05-12T14:49:49.669Z,20.61
2023-05-12T14:52:16.269Z,20.58
2023-05-12T14:54:42.727Z,20.52
2023-05-12T14:57:09.178Z,20.54
2023-05-12T14:59:36.029Z,20.66
2023-05-12T15:02:02.483Z,20.74
2023-05-12T15:04:28.911Z,20.81
2023-05-12T15:06:55.469Z,20.74
2023-05-12T15:09:22.007Z,20.69
2023-05-12T15:11:49.405Z,20.75
2023-05-12T15:14:15.798Z,21.01
2023-05-12T15:16:42.325Z,21.06
2023-05-12T15:19:09.057Z,21.35
2023-05-12T15:21:36.754Z,21.46
2023-05-12T15:24:03.565Z,21.26
2023-05-12T15:26:33.706Z,21.19
2023-05-12T15:29:01.635Z,21.21
2023-05-12T15:31:29.772Z,20.97
2023-05-12T15:33:59.452Z,21.02
2023-05-12T15:36:25.882Z,21.05
2023-05-12T15:38:52.253Z,20.98
2023-05-12T15:41:19.005Z,21.09
2023-05-12T15:43:45.388Z,21.52
2023-05-12T15:46:11.994Z,21.99
2023-05-12T15:48:39.453Z,22.56
2023-05-12T15:51:06.499Z,22.82
2023-05-12T15:53:32.957Z,23.06
2023-05-12T15:56:02.937Z,23.12
2023-05-12T15:58:29.759Z,22.81
2023-05-12T16:00:56.219Z,22.69
2023-05-12T16:03:23.655Z,22.44
2023-05-12T16:05:50.368Z,22.45
2023-05-12T16:08:16.950Z,22.53
2023-05-12T16:10:43.377Z,22.39
2023-05-12T16:13:09.826Z,21.96
2023-05-12T16:15:36.814Z,21.72
2023-05-12T16:18:03.573Z,21.45
2023-05-12T16:20:30.179Z,21.41
2023-05-12T16:22:56.871Z,21.34
2023-05-12T16:25:23.455Z,21.04
2023-05-12T16:27:50.106Z,20.98
2023-05-12T16:30:19.275Z,20.98
2023-05-12T16:32:47.371Z,20.80
2023-05-12T16:35:14.079Z,20.77
2023-05-12T16:37:40.492Z,20.61
2023-05-12T16:40:07.718Z,20.56
2023-05-12T16:42:34.121Z,20.39
2023-05-12T16:45:00.689Z,20.35
2023-05-12T16:47:27.350Z,20.33
2023-05-12T16:49:53.831Z,20.31
2023-05-12T16:52:20.468Z,20.39
2023-05-12T16:54:47.662Z,20.46
2023-05-12T16:57:14.080Z,20.40
2023-05-12T16:59:40.543Z,20.00
2023-05-12T17:02:08.321Z,19.70
2023-05-12T17:04:35.634Z,19.64
2023-05-12T17:07:02.242Z,19.49
2023-05-12T17:09:28.666Z,19.15
2023-05-12T17:11:55.231Z,18.96
2023-05-12T17:14:21.728Z,18.86
2023-05-12T17:16:48.149Z,18.79
2023-05-12T17:19:15.085Z,18.77
2023-05-12T17:21:42.370Z,18.51
2023-05-12T17:24:09.194Z,18.43
2023-05-12T17:26:35.751Z,18.38
2023-05-12T17:29:02.432Z,18.32
2023-05-12T17:31:29.059Z,18.25
2023-05-12T17:33:55.579Z,18.14
2023-05-12T17:36:22.173Z,18.04
2023-05-12T17:38:50.516Z,18.01
2023-05-12T17:41:18.191Z,18.02
2023-05-12T17:43:44.626Z,17.89
2023-05-12T17:46:11.162Z,17.96
2023-05-12T17:48:38.748Z,18.03
2023-05-12T17:51:06.000Z,17.93
2023-05-12T17:53:33.040Z,17.88
2023-05-12T17:55:59.865Z,17.87
2023-05-12T17:58:26.514Z,17.82
2023-05-12T18:00:53.117Z,17.85
2023-05-12T18:03:23.661Z,17.85
2023-05-12T18:05:51.518Z,17.85
2023-05-12T18:08:18.293Z,17.87
2023-05-12T18:10:45.489Z,17.79
2023-05-12T18:13:12.252Z,17.80
2023-05-12T18:15:39.826Z,17.84
2023-05-12T18:18:06.470Z,17.82
2023-05-12T18:20:32.851Z,17.79
2023-05-12T18:22:59.381Z,17.80
2023-05-12T18:25:26.197Z,17.79
2023-05-12T18:27:52.744Z,17.70
2023-05-12T18:30:19.347Z,17.56
2023-05-12T18:32:45.832Z,17.44
2023-05-12T18:35:12.345Z,17.35
2023-05-12T18:37:38.900Z,17.35
2023-05-12T18:40:06.906Z,17.45
2023-05-12T18:42:34.319Z,17.31
2023-05-12T18:45:00.852Z,17.35
2023-05-12T18:47:27.277Z,17.27
2023-05-12T18:49:53.877Z,17.17
2023-05-12T18:52:21.272Z,17.13
2023-05-12T18:54:49.722Z,17.06
2023-05-12T18:57:16.718Z,17.02
2023-05-12T18:59:43.541Z,17.04
2023-05-12T19:02:10.229Z,16.95
2023-05-12T19:04:37.018Z,16.94
2023-05-12T19:07:04.276Z,16.88
2023-05-12T19:09:30.796Z,16.86
2023-05-12T19:11:57.592Z,16.76
2023-05-12T19:14:24.046Z,16.65
2023-05-12T19:16:50.607Z,16.57
2023-05-12T19:19:17.320Z,16.49
2023-05-12T19:21:43.865Z,16.49
2023-05-12T19:24:10.647Z,16.34
2023-05-12T19:26:37.333Z,16.21
2023-05-12T19:29:04.582Z,16.09
2023-05-12T19:31:31.297Z,16.00
2023-05-12T19:33:57.860Z,15.85
2023-05-12T19:36:24.369Z,15.72
2023-05-12T19:38:50.774Z,15.59
2023-05-12T19:41:17.240Z,15.47
2023-05-12T19:43:44.317Z,15.38
2023-05-12T19:46:11.064Z,15.31
2023-05-12T19:48:37.731Z,15.25
2023-05-12T19:51:04.237Z,15.16
2023-05-12T19:53:30.689Z,15.02
2023-05-12T19:55:57.361Z,14.95
2023-05-12T19:58:23.791Z,14.80
2023-05-12T20:00:50.337Z,14.77
2023-05-12T20:03:17.359Z,14.69
2023-05-12T20:05:44.740Z,14.64
2023-05-12T20:08:11.494Z,14.67
2023-05-12T20:10:37.911Z,14.61
2023-05-12T20:13:04.906Z,14.53
2023-05-12T20:15:31.865Z,14.54
2023-05-12T20:17:58.453Z,14.38
2023-05-12T20:20:24.994Z,14.22
2023-05-12T20:22:52.217Z,14.10
2023-05-12T20:25:19.805Z,13.99
2023-05-12T20:27:46.744Z,13.90
2023-05-12T20:30:13.420Z,13.80
2023-05-12T20:32:40.070Z,13.73
2023-05-12T20:35:07.029Z,13.68
2023-05-12T20:37:33.556Z,13.63
2023-05-12T20:40:00.306Z,13.55
2023-05-12T20:42:26.847Z,13.54
2023-05-12T20:44:56.456Z,13.55
2023-05-12T20:47:23.064Z,13.46
2023-05-12T20:49:54.810Z,13.42
2023-05-12T20:52:21.300Z,13.37
2023-05-12T20:54:47.709Z,13.29
2023-05-12T20:57:14.168Z,13.19
2023-05-12T20:59:40.669Z,13.10
2023-05-12T21:02:07.178Z,13.03
2023-05-12T21:04:33.730Z,13.00
2023-05-12T21:07:00.258Z,12.97
2023-05-12T21:09:26.756Z,12.94
2023-05-12T21:11:53.189Z,12.91
2023-05-12T21:14:19.700Z,12.93
2023-05-12T21:16:46.311Z,12.97
2023-05-12T21:19:12.838Z,12.92
2023-05-12T21:21:39.871Z,12.90
2023-05-12T21:24:06.893Z,12.88
2023-05-12T21:26:34.119Z,12.77
2023-05-12T21:29:03.541Z,12.66
2023-05-12T21:31:30.667Z,12.56
2023-05-12T21:33:57.083Z,12.50
2023-05-12T21:36:23.472Z,12.42
2023-05-12T21:38:49.952Z,12.33
2023-05-12T21:41:16.582Z,12.28
2023-05-12T21:43:43.105Z,12.22
2023-05-12T21:46:09.603Z,11.96
2023-05-12T21:48:36.553Z,11.83
2023-05-12T21:51:03.500Z,11.72
2023-05-12T21:53:30.024Z,11.62
2023-05-12T21:55:56.971Z,11.55
2023-05-12T21:58:23.807Z,11.61
2023-05-12T22:00:53.647Z,11.58
2023-05-12T22:03:20.486Z,11.55
2023-05-12T22:05:47.053Z,11.61
2023-05-12T22:08:13.907Z,11.58
2023-05-12T22:10:40.564Z,11.50
2023-05-12T22:13:07.329Z,11.45
2023-05-12T22:15:34.065Z,11.43
2023-05-12T22:18:01.593Z,11.70
2023-05-12T22:20:28.864Z,11.60
2023-05-12T22:22:55.329Z,11.48
2023-05-12T22:25:21.953Z,11.42
2023-05-12T22:27:48.359Z,11.43
2023-05-12T22:30:14.942Z,11.39
2023-05-12T22:32:41.367Z,11.31
2023-05-12T22:35:08.985Z,11.21
2023-05-12T22:37:35.684Z,11.12
2023-05-12T22:40:02.381Z,11.08
2023-05-12T22:42:29.171Z,11.09
2023-05-12T22:44:57.281Z,11.11
2023-05-12T22:47:23.930Z,11.04
2023-05-12T22:49:50.574Z,11.02
2023-05-12T22:52:17.535Z,10.99
2023-05-12T22:54:43.913Z,11.02
2023-05-12T22:57:10.328Z,11.03
2023-05-12T22:59:36.754Z,10.96
2023-05-12T23:02:03.197Z,10.91
2023-05-12T23:04:29.572Z,10.92
2023-05-12T23:06:56.268Z,10.96
2023-05-12T23:09:22.671Z,10.87
2023-05-12T23:11:49.166Z,10.79
2023-05-12T23:14:16.023Z,10.80
2023-05-12T23:16:42.848Z,10.89
2023-05-12T23:19:09.873Z,10.87
2023-05-12T23:21:36.673Z,10.89
2023-05-12T23:24:04.109Z,10.82
2023-05-12T23:26:30.958Z,10.81
2023-05-12T23:28:57.437Z,10.80
2023-05-12T23:31:24.634Z,10.77
2023-05-12T23:33:51.780Z,10.75
2023-05-12T23:36:19.328Z,10.76
2023-05-12T23:38:47.254Z,10.75
2023-05-12T23:41:14.051Z,10.68
2023-05-12T23:43:40.607Z,10.60
2023-05-12T23:46:07.151Z,10.56
2023-05-12T23:48:33.768Z,10.56
2023-05-12T23:51:00.213Z,10.54
2023-05-12T23:53:26.938Z,10.64
2023-05-12T23:55:53.397Z,10.64
2023-05-12T23:58:19.906Z,10.76
